sensor_id;sensor_type;location;lat;lon;timestamp;temperature;humidity
14555;DHT22;7364;50.870;4.722;2022-08-19T00:01:44;21.90;99.90
14555;DHT22;7364;50.870;4.722;2022-08-19T00:04:14;21.90;99.90
14555;DHT22;7364;50.870;4.722;2022-08-19T00:06:44;21.90;99.90
14555;DHT22;7364;50.870;4.722;2022-08-19T00:09:14;21.90;99.90
14555;DHT22;7364;50.870;4.722;2022-08-19T00:11:42;21.80;99.90
14555;DHT22;7364;50.870;4.722;2022-08-19T00:14:12;21.70;99.90
14555;DHT22;7364;50.870;4.722;2022-08-19T00:16:45;21.70;99.90
14555;DHT22;7364;50.870;4.722;2022-08-19T00:19:14;21.60;99.90
14555;DHT22;7364;50.870;4.722;2022-08-19T00:21:41;21.40;99.90
14555;DHT22;7364;50.870;4.722;2022-08-19T00:24:10;21.20;99.90
14555;DHT22;7364;50.870;4.722;2022-08-19T00:26:38;21.00;99.90
14555;DHT22;7364;50.870;4.722;2022-08-19T00:29:08;20.90;99.90
14555;DHT22;7364;50.870;4.722;2022-08-19T00:31:36;20.80;99.90
14555;DHT22;7364;50.870;4.722;2022-08-19T00:34:05;20.70;99.90
14555;DHT22;7364;50.870;4.722;2022-08-19T00:36:33;20.70;99.90
14555;DHT22;7364;50.870;4.722;2022-08-19T00:39:01;20.70;99.90
14555;DHT22;7364;50.870;4.722;2022-08-19T00:41:28;20.70;99.90
14555;DHT22;7364;50.870;4.722;2022-08-19T00:44:02;20.70;99.90
14555;DHT22;7364;50.870;4.722;2022-08-19T00:46:30;20.70;99.90
14555;DHT22;7364;50.870;4.722;2022-08-19T00:48:59;20.70;99.90
14555;DHT22;7364;50.870;4.722;2022-08-19T00:51:30;20.70;99.90
14555;DHT22;7364;50.870;4.722;2022-08-19T00:53:59;20.70;99.90
14555;DHT22;7364;50.870;4.722;2022-08-19T00:56:28;20.70;99.90
14555;DHT22;7364;50.870;4.722;2022-08-19T00:58:58;20.60;99.90
14555;DHT22;7364;50.870;4.722;2022-08-19T01:01:25;20.50;99.90
14555;DHT22;7364;50.870;4.722;2022-08-19T01:03:53;20.40;99.90
14555;DHT22;7364;50.870;4.722;2022-08-19T01:06:20;20.40;99.90
14555;DHT22;7364;50.870;4.722;2022-08-19T01:08:49;20.50;99.90
14555;DHT22;7364;50.870;4.722;2022-08-19T01:11:16;20.40;99.90
14555;DHT22;7364;50.870;4.722;2022-08-19T01:13:44;20.40;99.90
14555;DHT22;7364;50.870;4.722;2022-08-19T01:16:12;20.40;99.90
14555;DHT22;7364;50.870;4.722;2022-08-19T01:18:42;20.40;99.90
14555;DHT22;7364;50.870;4.722;2022-08-19T01:21:12;20.40;99.90
14555;DHT22;7364;50.870;4.722;2022-08-19T01:23:45;20.30;99.90
14555;DHT22;7364;50.870;4.722;2022-08-19T01:26:17;20.20;99.90
14555;DHT22;7364;50.870;4.722;2022-08-19T01:28:51;20.30;99.90
14555;DHT22;7364;50.870;4.722;2022-08-19T01:31:21;20.30;99.90
14555;DHT22;7364;50.870;4.722;2022-08-19T01:33:49;20.20;99.90
14555;DHT22;7364;50.870;4.722;2022-08-19T01:36:23;20.20;99.90
14555;DHT22;7364;50.870;4.722;2022-08-19T01:38:54;20.10;99.90
14555;DHT22;7364;50.870;4.722;2022-08-19T01:41:21;20.10;99.90
14555;DHT22;7364;50.870;4.722;2022-08-19T01:43:49;20.20;99.90
14555;DHT22;7364;50.870;4.722;2022-08-19T01:46:17;20.20;99.90
14555;DHT22;7364;50.870;4.722;2022-08-19T01:48:44;20.30;99.90
14555;DHT22;7364;50.870;4.722;2022-08-19T01:51:12;20.40;99.90
14555;DHT22;7364;50.870;4.722;2022-08-19T01:53:40;20.50;99.90
14555;DHT22;7364;50.870;4.722;2022-08-19T01:56:09;20.60;99.90
14555;DHT22;7364;50.870;4.722;2022-08-19T01:58:40;20.60;99.90
14555;DHT22;7364;50.870;4.722;2022-08-19T02:01:08;20.70;99.90
14555;DHT22;7364;50.870;4.722;2022-08-19T02:03:36;20.60;99.90
14555;DHT22;7364;50.870;4.722;2022-08-19T02:06:04;20.70;99.90
14555;DHT22;7364;50.870;4.722;2022-08-19T02:08:36;20.70;99.90
14555;DHT22;7364;50.870;4.722;2022-08-19T02:11:04;20.70;99.90
14555;DHT22;7364;50.870;4.722;2022-08-19T02:13:33;20.60;99.90
14555;DHT22;7364;50.870;4.722;2022-08-19T02:16:01;20.50;99.90
14555;DHT22;7364;50.870;4.722;2022-08-19T02:18:28;20.40;99.90
14555;DHT22;7364;50.870;4.722;2022-08-19T02:20:55;20.40;99.90
14555;DHT22;7364;50.870;4.722;2022-08-19T02:23:22;20.30;99.90
14555;DHT22;7364;50.870;4.722;2022-08-19T02:25:51;20.40;99.90
14555;DHT22;7364;50.870;4.722;2022-08-19T02:28:18;20.40;99.90
14555;DHT22;7364;50.870;4.722;2022-08-19T02:30:48;20.40;99.90
14555;DHT22;7364;50.870;4.722;2022-08-19T02:33:15;20.50;99.90
14555;DHT22;7364;50.870;4.722;2022-08-19T02:35:43;20.70;99.90
14555;DHT22;7364;50.870;4.722;2022-08-19T02:38:11;20.80;99.90
14555;DHT22;7364;50.870;4.722;2022-08-19T02:40:56;20.90;99.90
14555;DHT22;7364;50.870;4.722;2022-08-19T02:43:24;21.10;99.90
14555;DHT22;7364;50.870;4.722;2022-08-19T02:45:53;21.10;99.90
14555;DHT22;7364;50.870;4.722;2022-08-19T02:48:22;21.10;99.90
14555;DHT22;7364;50.870;4.722;2022-08-19T02:50:51;21.20;99.90
14555;DHT22;7364;50.870;4.722;2022-08-19T02:53:22;21.00;99.90
14555;DHT22;7364;50.870;4.722;2022-08-19T02:55:50;20.80;99.90
14555;DHT22;7364;50.870;4.722;2022-08-19T02:58:19;20.70;99.90
14555;DHT22;7364;50.870;4.722;2022-08-19T03:00:48;20.40;99.90
14555;DHT22;7364;50.870;4.722;2022-08-19T03:03:17;20.30;99.90
14555;DHT22;7364;50.870;4.722;2022-08-19T03:05:45;20.30;99.90
14555;DHT22;7364;50.870;4.722;2022-08-19T03:08:13;20.40;99.90
14555;DHT22;7364;50.870;4.722;2022-08-19T03:10:43;20.50;99.90
14555;DHT22;7364;50.870;4.722;2022-08-19T03:13:13;20.60;99.90
14555;DHT22;7364;50.870;4.722;2022-08-19T03:15:42;20.50;99.90
14555;DHT22;7364;50.870;4.722;2022-08-19T03:18:10;20.50;99.90
14555;DHT22;7364;50.870;4.722;2022-08-19T03:20:43;20.50;99.90
14555;DHT22;7364;50.870;4.722;2022-08-19T03:23:14;20.60;99.90
14555;DHT22;7364;50.870;4.722;2022-08-19T03:25:46;20.70;99.90
14555;DHT22;7364;50.870;4.722;2022-08-19T03:28:15;20.70;99.90
14555;DHT22;7364;50.870;4.722;2022-08-19T03:30:53;20.60;99.90
14555;DHT22;7364;50.870;4.722;2022-08-19T03:33:23;20.60;99.90
14555;DHT22;7364;50.870;4.722;2022-08-19T03:36:09;20.40;99.90
14555;DHT22;7364;50.870;4.722;2022-08-19T03:38:40;20.40;99.90
14555;DHT22;7364;50.870;4.722;2022-08-19T03:41:10;20.40;99.90
14555;DHT22;7364;50.870;4.722;2022-08-19T03:43:40;20.40;99.90
14555;DHT22;7364;50.870;4.722;2022-08-19T03:46:09;20.50;99.90
14555;DHT22;7364;50.870;4.722;2022-08-19T03:48:41;20.40;99.90
14555;DHT22;7364;50.870;4.722;2022-08-19T03:51:17;20.40;99.90
14555;DHT22;7364;50.870;4.722;2022-08-19T03:53:46;20.40;99.90
14555;DHT22;7364;50.870;4.722;2022-08-19T03:56:14;20.30;99.90
14555;DHT22;7364;50.870;4.722;2022-08-19T03:58:42;20.30;99.90
14555;DHT22;7364;50.870;4.722;2022-08-19T04:01:14;20.10;99.90
14555;DHT22;7364;50.870;4.722;2022-08-19T04:03:44;20.10;99.90
14555;DHT22;7364;50.870;4.722;2022-08-19T04:06:13;20.00;99.90
14555;DHT22;7364;50.870;4.722;2022-08-19T04:08:43;19.80;99.90
14555;DHT22;7364;50.870;4.722;2022-08-19T04:11:12;19.70;99.90
14555;DHT22;7364;50.870;4.722;2022-08-19T04:13:40;19.70;99.90
14555;DHT22;7364;50.870;4.722;2022-08-19T04:16:10;19.50;99.90
14555;DHT22;7364;50.870;4.722;2022-08-19T04:18:38;19.60;99.90
14555;DHT22;7364;50.870;4.722;2022-08-19T04:21:07;19.60;99.90
14555;DHT22;7364;50.870;4.722;2022-08-19T04:23:35;19.70;99.90
14555;DHT22;7364;50.870;4.722;2022-08-19T04:26:04;19.80;99.90
14555;DHT22;7364;50.870;4.722;2022-08-19T04:28:31;19.80;99.90
14555;DHT22;7364;50.870;4.722;2022-08-19T04:30:58;19.80;99.90
14555;DHT22;7364;50.870;4.722;2022-08-19T04:33:26;19.80;99.90
14555;DHT22;7364;50.870;4.722;2022-08-19T04:35:54;19.80;99.90
14555;DHT22;7364;50.870;4.722;2022-08-19T04:38:23;19.90;99.90
14555;DHT22;7364;50.870;4.722;2022-08-19T04:40:52;20.00;99.90
14555;DHT22;7364;50.870;4.722;2022-08-19T04:43:49;20.00;99.90
14555;DHT22;7364;50.870;4.722;2022-08-19T04:46:16;19.70;99.90
14555;DHT22;7364;50.870;4.722;2022-08-19T04:48:45;19.80;99.90
14555;DHT22;7364;50.870;4.722;2022-08-19T04:51:13;19.60;99.90
14555;DHT22;7364;50.870;4.722;2022-08-19T04:53:41;19.50;99.90
14555;DHT22;7364;50.870;4.722;2022-08-19T04:56:12;19.30;99.90
14555;DHT22;7364;50.870;4.722;2022-08-19T04:58:41;19.20;99.90
14555;DHT22;7364;50.870;4.722;2022-08-19T05:01:11;19.20;99.90
14555;DHT22;7364;50.870;4.722;2022-08-19T05:03:39;19.10;99.90
14555;DHT22;7364;50.870;4.722;2022-08-19T05:06:08;19.00;99.90
14555;DHT22;7364;50.870;4.722;2022-08-19T05:08:37;19.10;99.90
14555;DHT22;7364;50.870;4.722;2022-08-19T05:11:11;18.90;99.90
14555;DHT22;7364;50.870;4.722;2022-08-19T05:13:39;18.80;99.90
14555;DHT22;7364;50.870;4.722;2022-08-19T05:16:06;18.80;99.90
14555;DHT22;7364;50.870;4.722;2022-08-19T05:18:35;18.70;99.90
14555;DHT22;7364;50.870;4.722;2022-08-19T05:21:20;18.70;99.90
14555;DHT22;7364;50.870;4.722;2022-08-19T05:24:05;18.80;99.90
14555;DHT22;7364;50.870;4.722;2022-08-19T05:26:34;18.60;99.90
14555;DHT22;7364;50.870;4.722;2022-08-19T05:29:02;18.80;99.90
14555;DHT22;7364;50.870;4.722;2022-08-19T05:31:30;18.70;99.90
14555;DHT22;7364;50.870;4.722;2022-08-19T05:33:59;18.70;99.90
14555;DHT22;7364;50.870;4.722;2022-08-19T05:36:27;18.80;99.90
14555;DHT22;7364;50.870;4.722;2022-08-19T05:38:55;18.80;99.90
14555;DHT22;7364;50.870;4.722;2022-08-19T05:41:22;18.90;99.90
14555;DHT22;7364;50.870;4.722;2022-08-19T05:43:55;18.80;99.90
14555;DHT22;7364;50.870;4.722;2022-08-19T05:46:22;18.90;99.90
14555;DHT22;7364;50.870;4.722;2022-08-19T05:48:50;18.90;99.90
14555;DHT22;7364;50.870;4.722;2022-08-19T05:51:18;19.20;99.90
14555;DHT22;7364;50.870;4.722;2022-08-19T05:53:45;19.10;99.90
14555;DHT22;7364;50.870;4.722;2022-08-19T05:56:15;19.10;99.90
14555;DHT22;7364;50.870;4.722;2022-08-19T05:58:44;19.20;99.90
14555;DHT22;7364;50.870;4.722;2022-08-19T06:01:14;19.30;99.90
14555;DHT22;7364;50.870;4.722;2022-08-19T06:03:42;19.40;99.90
14555;DHT22;7364;50.870;4.722;2022-08-19T06:06:11;19.40;99.90
14555;DHT22;7364;50.870;4.722;2022-08-19T06:08:40;19.40;99.90
14555;DHT22;7364;50.870;4.722;2022-08-19T06:11:18;19.50;99.90
14555;DHT22;7364;50.870;4.722;2022-08-19T06:13:47;19.30;99.90
14555;DHT22;7364;50.870;4.722;2022-08-19T06:16:16;19.20;99.90
14555;DHT22;7364;50.870;4.722;2022-08-19T06:18:49;19.10;99.90
14555;DHT22;7364;50.870;4.722;2022-08-19T06:21:20;19.10;99.90
14555;DHT22;7364;50.870;4.722;2022-08-19T06:23:49;19.00;99.90
14555;DHT22;7364;50.870;4.722;2022-08-19T06:26:18;19.20;99.90
14555;DHT22;7364;50.870;4.722;2022-08-19T06:28:46;19.40;99.90
14555;DHT22;7364;50.870;4.722;2022-08-19T06:31:14;19.70;99.90
14555;DHT22;7364;50.870;4.722;2022-08-19T06:33:42;19.80;99.90
14555;DHT22;7364;50.870;4.722;2022-08-19T06:36:19;19.80;99.90
14555;DHT22;7364;50.870;4.722;2022-08-19T06:38:46;20.00;99.90
14555;DHT22;7364;50.870;4.722;2022-08-19T06:41:15;20.30;99.90
14555;DHT22;7364;50.870;4.722;2022-08-19T06:43:42;20.40;99.90
14555;DHT22;7364;50.870;4.722;2022-08-19T06:46:11;20.60;99.90
14555;DHT22;7364;50.870;4.722;2022-08-19T06:48:39;20.60;99.90
14555;DHT22;7364;50.870;4.722;2022-08-19T06:51:06;20.80;99.90
14555;DHT22;7364;50.870;4.722;2022-08-19T06:53:33;20.90;99.90
14555;DHT22;7364;50.870;4.722;2022-08-19T06:56:01;20.80;99.90
14555;DHT22;7364;50.870;4.722;2022-08-19T06:58:31;20.70;99.90
14555;DHT22;7364;50.870;4.722;2022-08-19T07:01:00;20.60;99.90
14555;DHT22;7364;50.870;4.722;2022-08-19T07:03:29;20.80;99.90
14555;DHT22;7364;50.870;4.722;2022-08-19T07:06:02;20.80;99.90
14555;DHT22;7364;50.870;4.722;2022-08-19T07:08:30;21.00;99.90
14555;DHT22;7364;50.870;4.722;2022-08-19T07:10:57;20.80;99.90
14555;DHT22;7364;50.870;4.722;2022-08-19T07:13:24;20.60;99.90
14555;DHT22;7364;50.870;4.722;2022-08-19T07:15:53;20.40;99.90
14555;DHT22;7364;50.870;4.722;2022-08-19T07:18:20;20.50;99.90
14555;DHT22;7364;50.870;4.722;2022-08-19T07:20:48;21.00;99.90
14555;DHT22;7364;50.870;4.722;2022-08-19T07:23:15;21.10;99.90
14555;DHT22;7364;50.870;4.722;2022-08-19T07:25:45;21.10;99.90
14555;DHT22;7364;50.870;4.722;2022-08-19T07:28:12;20.60;99.90
14555;DHT22;7364;50.870;4.722;2022-08-19T07:30:39;20.60;99.90
14555;DHT22;7364;50.870;4.722;2022-08-19T07:33:08;20.70;99.90
14555;DHT22;7364;50.870;4.722;2022-08-19T07:35:35;20.90;99.90
14555;DHT22;7364;50.870;4.722;2022-08-19T07:38:03;20.80;99.90
14555;DHT22;7364;50.870;4.722;2022-08-19T07:40:30;20.80;99.90
14555;DHT22;7364;50.870;4.722;2022-08-19T07:42:58;20.60;99.90
14555;DHT22;7364;50.870;4.722;2022-08-19T07:45:25;20.50;99.90
14555;DHT22;7364;50.870;4.722;2022-08-19T07:47:54;20.50;99.90
14555;DHT22;7364;50.870;4.722;2022-08-19T07:50:24;20.60;99.90
14555;DHT22;7364;50.870;4.722;2022-08-19T07:52:51;20.60;99.90
14555;DHT22;7364;50.870;4.722;2022-08-19T07:55:21;20.40;99.90
14555;DHT22;7364;50.870;4.722;2022-08-19T07:57:49;20.50;99.90
14555;DHT22;7364;50.870;4.722;2022-08-19T08:00:18;20.50;99.90
14555;DHT22;7364;50.870;4.722;2022-08-19T08:02:45;20.60;99.90
14555;DHT22;7364;50.870;4.722;2022-08-19T08:05:12;20.80;99.90
14555;DHT22;7364;50.870;4.722;2022-08-19T08:07:59;21.50;99.90
14555;DHT22;7364;50.870;4.722;2022-08-19T08:10:44;21.70;99.90
14555;DHT22;7364;50.870;4.722;2022-08-19T08:13:11;22.00;99.90
14555;DHT22;7364;50.870;4.722;2022-08-19T08:15:39;22.30;99.90
14555;DHT22;7364;50.870;4.722;2022-08-19T08:18:06;22.20;99.90
14555;DHT22;7364;50.870;4.722;2022-08-19T08:20:34;22.20;99.90
14555;DHT22;7364;50.870;4.722;2022-08-19T08:23:03;22.30;99.90
14555;DHT22;7364;50.870;4.722;2022-08-19T08:25:48;22.40;99.90
14555;DHT22;7364;50.870;4.722;2022-08-19T08:28:15;22.30;99.90
14555;DHT22;7364;50.870;4.722;2022-08-19T08:30:43;21.80;99.90
14555;DHT22;7364;50.870;4.722;2022-08-19T08:33:13;21.50;99.90
14555;DHT22;7364;50.870;4.722;2022-08-19T08:35:43;21.20;99.90
14555;DHT22;7364;50.870;4.722;2022-08-19T08:38:13;21.20;99.90
14555;DHT22;7364;50.870;4.722;2022-08-19T08:40:45;21.30;99.90
14555;DHT22;7364;50.870;4.722;2022-08-19T08:43:26;21.60;99.90
14555;DHT22;7364;50.870;4.722;2022-08-19T08:46:00;21.70;99.90
14555;DHT22;7364;50.870;4.722;2022-08-19T08:48:37;21.90;99.90
14555;DHT22;7364;50.870;4.722;2022-08-19T08:51:10;22.00;99.90
14555;DHT22;7364;50.870;4.722;2022-08-19T08:53:41;22.40;99.90
14555;DHT22;7364;50.870;4.722;2022-08-19T08:56:10;23.00;99.90
14555;DHT22;7364;50.870;4.722;2022-08-19T08:58:48;23.50;99.90
14555;DHT22;7364;50.870;4.722;2022-08-19T09:01:18;23.80;99.90
14555;DHT22;7364;50.870;4.722;2022-08-19T09:03:46;24.20;99.90
14555;DHT22;7364;50.870;4.722;2022-08-19T09:06:21;23.60;99.90
14555;DHT22;7364;50.870;4.722;2022-08-19T09:08:59;23.10;99.90
14555;DHT22;7364;50.870;4.722;2022-08-19T09:11:40;22.90;99.90
14555;DHT22;7364;50.870;4.722;2022-08-19T09:14:19;22.80;99.90
14555;DHT22;7364;50.870;4.722;2022-08-19T09:16:51;22.70;99.90
14555;DHT22;7364;50.870;4.722;2022-08-19T09:19:19;23.00;99.90
14555;DHT22;7364;50.870;4.722;2022-08-19T09:21:46;23.30;99.90
14555;DHT22;7364;50.870;4.722;2022-08-19T09:24:15;23.80;99.90
14555;DHT22;7364;50.870;4.722;2022-08-19T09:26:42;24.20;99.90
14555;DHT22;7364;50.870;4.722;2022-08-19T09:29:11;24.00;99.90
14555;DHT22;7364;50.870;4.722;2022-08-19T09:31:39;23.60;99.90
14555;DHT22;7364;50.870;4.722;2022-08-19T09:34:06;23.50;99.90
14555;DHT22;7364;50.870;4.722;2022-08-19T09:36:34;24.20;99.90
14555;DHT22;7364;50.870;4.722;2022-08-19T09:39:03;24.90;99.90
14555;DHT22;7364;50.870;4.722;2022-08-19T09:41:32;25.10;99.90
14555;DHT22;7364;50.870;4.722;2022-08-19T09:43:59;24.60;99.90
14555;DHT22;7364;50.870;4.722;2022-08-19T09:46:29;24.30;99.90
14555;DHT22;7364;50.870;4.722;2022-08-19T09:48:59;24.70;99.90
14555;DHT22;7364;50.870;4.722;2022-08-19T09:51:27;24.80;99.90
14555;DHT22;7364;50.870;4.722;2022-08-19T09:53:58;25.20;99.90
14555;DHT22;7364;50.870;4.722;2022-08-19T09:56:27;25.00;99.90
14555;DHT22;7364;50.870;4.722;2022-08-19T09:58:59;24.30;99.90
14555;DHT22;7364;50.870;4.722;2022-08-19T10:01:27;23.70;99.90
14555;DHT22;7364;50.870;4.722;2022-08-19T10:03:58;23.30;99.90
14555;DHT22;7364;50.870;4.722;2022-08-19T10:06:27;23.30;99.90
14555;DHT22;7364;50.870;4.722;2022-08-19T10:08:56;23.10;99.90
14555;DHT22;7364;50.870;4.722;2022-08-19T10:11:23;23.00;99.90
14555;DHT22;7364;50.870;4.722;2022-08-19T10:13:52;23.10;99.90
14555;DHT22;7364;50.870;4.722;2022-08-19T10:16:22;23.10;99.90
14555;DHT22;7364;50.870;4.722;2022-08-19T10:18:50;23.10;99.90
14555;DHT22;7364;50.870;4.722;2022-08-19T10:21:19;23.30;99.90
14555;DHT22;7364;50.870;4.722;2022-08-19T10:23:51;23.40;99.90
14555;DHT22;7364;50.870;4.722;2022-08-19T10:26:20;23.20;99.90
14555;DHT22;7364;50.870;4.722;2022-08-19T10:28:48;23.20;99.90
14555;DHT22;7364;50.870;4.722;2022-08-19T10:31:18;23.30;99.90
14555;DHT22;7364;50.870;4.722;2022-08-19T10:33:48;23.50;99.90
14555;DHT22;7364;50.870;4.722;2022-08-19T10:36:18;24.00;99.90
14555;DHT22;7364;50.870;4.722;2022-08-19T10:38:48;24.00;99.90
14555;DHT22;7364;50.870;4.722;2022-08-19T10:41:19;24.00;99.90
14555;DHT22;7364;50.870;4.722;2022-08-19T10:43:51;24.70;99.90
14555;DHT22;7364;50.870;4.722;2022-08-19T10:46:21;25.20;99.90
14555;DHT22;7364;50.870;4.722;2022-08-19T10:48:50;25.80;99.90
14555;DHT22;7364;50.870;4.722;2022-08-19T10:51:18;25.80;99.90
14555;DHT22;7364;50.870;4.722;2022-08-19T10:54:03;24.90;99.90
14555;DHT22;7364;50.870;4.722;2022-08-19T10:56:32;24.40;99.90
14555;DHT22;7364;50.870;4.722;2022-08-19T10:59:18;25.00;99.90
14555;DHT22;7364;50.870;4.722;2022-08-19T11:01:47;25.30;99.90
14555;DHT22;7364;50.870;4.722;2022-08-19T11:04:16;25.70;99.90
14555;DHT22;7364;50.870;4.722;2022-08-19T11:06:44;26.10;99.90
14555;DHT22;7364;50.870;4.722;2022-08-19T11:09:13;26.20;99.90
14555;DHT22;7364;50.870;4.722;2022-08-19T11:11:41;26.60;99.90
14555;DHT22;7364;50.870;4.722;2022-08-19T11:14:09;26.20;99.90
14555;DHT22;7364;50.870;4.722;2022-08-19T11:16:36;26.00;99.90
14555;DHT22;7364;50.870;4.722;2022-08-19T11:19:05;26.40;99.90
14555;DHT22;7364;50.870;4.722;2022-08-19T11:21:36;26.50;99.90
14555;DHT22;7364;50.870;4.722;2022-08-19T11:24:06;26.30;99.90
14555;DHT22;7364;50.870;4.722;2022-08-19T11:26:35;26.10;99.90
14555;DHT22;7364;50.870;4.722;2022-08-19T11:29:04;26.50;99.90
14555;DHT22;7364;50.870;4.722;2022-08-19T11:31:34;26.60;99.90
14555;DHT22;7364;50.870;4.722;2022-08-19T11:34:08;26.40;99.90
14555;DHT22;7364;50.870;4.722;2022-08-19T11:36:39;25.90;99.90
14555;DHT22;7364;50.870;4.722;2022-08-19T11:39:08;25.10;99.90
14555;DHT22;7364;50.870;4.722;2022-08-19T11:41:36;25.40;99.90
14555;DHT22;7364;50.870;4.722;2022-08-19T11:44:05;25.50;99.90
14555;DHT22;7364;50.870;4.722;2022-08-19T11:46:34;25.50;99.90
14555;DHT22;7364;50.870;4.722;2022-08-19T11:49:02;25.70;99.90
14555;DHT22;7364;50.870;4.722;2022-08-19T11:51:31;26.00;99.90
14555;DHT22;7364;50.870;4.722;2022-08-19T11:54:01;26.00;99.90
14555;DHT22;7364;50.870;4.722;2022-08-19T11:56:28;26.00;99.90
14555;DHT22;7364;50.870;4.722;2022-08-19T11:58:56;26.10;99.90
14555;DHT22;7364;50.870;4.722;2022-08-19T12:01:25;25.10;99.90
14555;DHT22;7364;50.870;4.722;2022-08-19T12:03:54;24.80;99.90
14555;DHT22;7364;50.870;4.722;2022-08-19T12:06:24;24.70;99.90
14555;DHT22;7364;50.870;4.722;2022-08-19T12:08:54;25.20;99.90
14555;DHT22;7364;50.870;4.722;2022-08-19T12:11:23;25.50;99.90
14555;DHT22;7364;50.870;4.722;2022-08-19T12:13:51;25.10;99.90
14555;DHT22;7364;50.870;4.722;2022-08-19T12:16:22;24.60;99.90
14555;DHT22;7364;50.870;4.722;2022-08-19T12:18:50;24.50;99.90
14555;DHT22;7364;50.870;4.722;2022-08-19T12:21:20;24.70;99.90
14555;DHT22;7364;50.870;4.722;2022-08-19T12:23:51;25.00;99.90
14555;DHT22;7364;50.870;4.722;2022-08-19T12:26:18;24.90;99.90
14555;DHT22;7364;50.870;4.722;2022-08-19T12:28:47;24.60;99.90
14555;DHT22;7364;50.870;4.722;2022-08-19T12:31:15;24.50;99.90
14555;DHT22;7364;50.870;4.722;2022-08-19T12:33:43;24.60;99.90
14555;DHT22;7364;50.870;4.722;2022-08-19T12:36:12;25.30;99.90
14555;DHT22;7364;50.870;4.722;2022-08-19T12:38:44;25.70;99.90
14555;DHT22;7364;50.870;4.722;2022-08-19T12:41:15;26.10;99.90
14555;DHT22;7364;50.870;4.722;2022-08-19T12:43:44;26.50;99.90
14555;DHT22;7364;50.870;4.722;2022-08-19T12:46:15;26.90;99.90
14555;DHT22;7364;50.870;4.722;2022-08-19T12:48:42;27.70;99.90
14555;DHT22;7364;50.870;4.722;2022-08-19T12:51:12;27.50;99.90
14555;DHT22;7364;50.870;4.722;2022-08-19T12:53:40;27.90;99.90
14555;DHT22;7364;50.870;4.722;2022-08-19T12:56:09;28.20;97.60
14555;DHT22;7364;50.870;4.722;2022-08-19T12:58:38;27.90;98.00
14555;DHT22;7364;50.870;4.722;2022-08-19T13:01:08;27.70;98.50
14555;DHT22;7364;50.870;4.722;2022-08-19T13:03:37;26.90;99.40
14555;DHT22;7364;50.870;4.722;2022-08-19T13:06:05;27.30;99.90
14555;DHT22;7364;50.870;4.722;2022-08-19T13:08:33;28.00;98.50
14555;DHT22;7364;50.870;4.722;2022-08-19T13:11:07;29.90;95.80
14555;DHT22;7364;50.870;4.722;2022-08-19T13:13:38;32.10;91.00
14555;DHT22;7364;50.870;4.722;2022-08-19T13:16:09;32.60;84.20
14555;DHT22;7364;50.870;4.722;2022-08-19T13:18:39;33.90;80.40
14555;DHT22;7364;50.870;4.722;2022-08-19T13:21:09;35.60;74.20
14555;DHT22;7364;50.870;4.722;2022-08-19T13:23:37;38.40;64.00
14555;DHT22;7364;50.870;4.722;2022-08-19T13:26:06;35.30;64.90
14555;DHT22;7364;50.870;4.722;2022-08-19T13:28:34;33.50;70.00
14555;DHT22;7364;50.870;4.722;2022-08-19T13:31:16;33.30;72.70
14555;DHT22;7364;50.870;4.722;2022-08-19T13:34:02;32.80;73.00
14555;DHT22;7364;50.870;4.722;2022-08-19T13:36:30;33.50;71.80
14555;DHT22;7364;50.870;4.722;2022-08-19T13:38:57;34.90;68.10
14555;DHT22;7364;50.870;4.722;2022-08-19T13:41:24;36.00;66.90
14555;DHT22;7364;50.870;4.722;2022-08-19T13:43:52;34.80;65.70
14555;DHT22;7364;50.870;4.722;2022-08-19T13:46:20;34.10;69.20
14555;DHT22;7364;50.870;4.722;2022-08-19T13:48:48;34.10;67.20
14555;DHT22;7364;50.870;4.722;2022-08-19T13:51:18;33.70;68.80
14555;DHT22;7364;50.870;4.722;2022-08-19T13:53:45;33.30;70.90
14555;DHT22;7364;50.870;4.722;2022-08-19T13:56:15;33.80;68.90
14555;DHT22;7364;50.870;4.722;2022-08-19T13:58:42;34.10;67.00
14555;DHT22;7364;50.870;4.722;2022-08-19T14:01:10;34.40;66.40
14555;DHT22;7364;50.870;4.722;2022-08-19T14:03:38;33.90;66.30
14555;DHT22;7364;50.870;4.722;2022-08-19T14:06:05;34.20;67.10
14555;DHT22;7364;50.870;4.722;2022-08-19T14:08:34;34.20;65.50
14555;DHT22;7364;50.870;4.722;2022-08-19T14:11:05;33.90;65.90
14555;DHT22;7364;50.870;4.722;2022-08-19T14:13:32;33.60;66.60
14555;DHT22;7364;50.870;4.722;2022-08-19T14:16:00;32.10;70.30
14555;DHT22;7364;50.870;4.722;2022-08-19T14:18:30;32.00;71.40
14555;DHT22;7364;50.870;4.722;2022-08-19T14:20:58;31.50;73.00
14555;DHT22;7364;50.870;4.722;2022-08-19T14:23:25;30.90;73.90
14555;DHT22;7364;50.870;4.722;2022-08-19T14:26:03;30.20;77.00
14555;DHT22;7364;50.870;4.722;2022-08-19T14:28:30;29.70;78.80
14555;DHT22;7364;50.870;4.722;2022-08-19T14:30:57;30.00;78.90
14555;DHT22;7364;50.870;4.722;2022-08-19T14:33:25;30.20;78.60
14555;DHT22;7364;50.870;4.722;2022-08-19T14:35:52;29.90;79.20
14555;DHT22;7364;50.870;4.722;2022-08-19T14:38:20;31.00;77.70
14555;DHT22;7364;50.870;4.722;2022-08-19T14:40:47;31.30;75.50
14555;DHT22;7364;50.870;4.722;2022-08-19T14:43:16;32.20;74.40
14555;DHT22;7364;50.870;4.722;2022-08-19T14:45:43;33.80;69.60
14555;DHT22;7364;50.870;4.722;2022-08-19T14:48:10;33.90;66.90
14555;DHT22;7364;50.870;4.722;2022-08-19T14:50:38;31.80;71.00
14555;DHT22;7364;50.870;4.722;2022-08-19T14:53:07;30.20;76.50
14555;DHT22;7364;50.870;4.722;2022-08-19T14:55:35;29.70;79.20
14555;DHT22;7364;50.870;4.722;2022-08-19T14:58:02;29.10;81.20
14555;DHT22;7364;50.870;4.722;2022-08-19T15:00:33;28.40;83.50
14555;DHT22;7364;50.870;4.722;2022-08-19T15:03:00;28.00;85.70
14555;DHT22;7364;50.870;4.722;2022-08-19T15:05:28;27.70;87.80
14555;DHT22;7364;50.870;4.722;2022-08-19T15:07:55;27.10;90.50
14555;DHT22;7364;50.870;4.722;2022-08-19T15:10:23;26.70;91.80
14555;DHT22;7364;50.870;4.722;2022-08-19T15:12:50;26.50;93.60
14555;DHT22;7364;50.870;4.722;2022-08-19T15:15:18;26.30;94.90
14555;DHT22;7364;50.870;4.722;2022-08-19T15:17:49;26.40;95.80
14555;DHT22;7364;50.870;4.722;2022-08-19T15:20:18;26.20;97.40
14555;DHT22;7364;50.870;4.722;2022-08-19T15:22:46;26.20;99.00
14555;DHT22;7364;50.870;4.722;2022-08-19T15:25:16;26.30;98.10
14555;DHT22;7364;50.870;4.722;2022-08-19T15:27:44;26.40;96.90
14555;DHT22;7364;50.870;4.722;2022-08-19T15:30:17;26.60;96.10
14555;DHT22;7364;50.870;4.722;2022-08-19T15:32:46;26.50;96.30
14555;DHT22;7364;50.870;4.722;2022-08-19T15:35:17;26.30;96.60
14555;DHT22;7364;50.870;4.722;2022-08-19T15:37:47;26.10;97.20
14555;DHT22;7364;50.870;4.722;2022-08-19T15:40:15;26.00;97.20
14555;DHT22;7364;50.870;4.722;2022-08-19T15:42:42;25.70;98.40
14555;DHT22;7364;50.870;4.722;2022-08-19T15:45:10;25.60;99.00
14555;DHT22;7364;50.870;4.722;2022-08-19T15:47:38;25.30;99.30
14555;DHT22;7364;50.870;4.722;2022-08-19T15:50:07;25.30;99.90
14555;DHT22;7364;50.870;4.722;2022-08-19T15:52:41;24.90;99.90
14555;DHT22;7364;50.870;4.722;2022-08-19T15:55:10;24.20;99.90
14555;DHT22;7364;50.870;4.722;2022-08-19T15:57:38;24.00;99.90
14555;DHT22;7364;50.870;4.722;2022-08-19T16:00:22;24.30;99.90